createdAt,value
2019-01-02T00:00:54.491Z,1007.9
2019-01-02T00:01:59.476Z,1007.9
2019-01-02T00:03:04.869Z,1007.9
2019-01-02T00:04:12.524Z,1007.9
2019-01-02T00:05:20.846Z,1007.9
2019-01-02T00:06:28.833Z,1007.9
2019-01-02T00:07:35.500Z,1008
2019-01-02T00:08:42.920Z,1007.9
2019-01-02T00:09:47.386Z,1008
2019-01-02T00:10:55.389Z,1008
2019-01-02T00:12:04.886Z,1007.9
2019-01-02T00:13:10.354Z,1008
2019-01-02T00:14:17.510Z,1008
2019-01-02T00:15:25.963Z,1008.1
2019-01-02T00:16:32.747Z,1008
2019-01-02T00:17:40.862Z,1008
2019-01-02T00:18:47.782Z,1008
2019-01-02T00:19:54.557Z,1008.1
2019-01-02T00:21:02.482Z,1008.1
2019-01-02T00:22:12.208Z,1008.1
2019-01-02T00:23:19.061Z,1008.1
2019-01-02T00:24:26.427Z,1008.1
2019-01-02T00:25:33.955Z,1008.2
2019-01-02T00:26:43.960Z,1008.1
2019-01-02T00:27:51.713Z,1008.1
2019-01-02T00:29:00.480Z,1008.3
2019-01-02T00:30:09.399Z,1008.2
2019-01-02T00:31:16.048Z,1008.2
2019-01-02T00:32:23.993Z,1008.2
2019-01-02T00:33:31.838Z,1008.3
2019-01-02T00:34:38.483Z,1008.4
2019-01-02T00:35:46.161Z,1008.3
2019-01-02T00:36:52.416Z,1008.3
2019-01-02T00:38:01.086Z,1008.3
2019-01-02T00:39:06.841Z,1008.4
2019-01-02T00:40:15.878Z,1008.3
2019-01-02T00:41:22.846Z,1008.4
2019-01-02T00:42:30.638Z,1008.4
2019-01-02T00:43:37.157Z,1008.5
2019-01-02T00:44:45.143Z,1008.5
2019-01-02T00:45:51.274Z,1008.4
2019-01-02T00:46:58.183Z,1008.4
2019-01-02T00:48:03.493Z,1008.5
2019-01-02T00:49:11.071Z,1008.5
2019-01-02T00:50:17.655Z,1008.5
2019-01-02T00:51:24.316Z,1008.5
2019-01-02T00:52:32.511Z,1008.6
2019-01-02T00:53:38.261Z,1008.7
2019-01-02T00:54:45.956Z,1008.6
2019-01-02T00:55:55.196Z,1008.5
2019-01-02T00:57:03.651Z,1008.6
2019-01-02T00:58:10.789Z,1008.6
2019-01-02T00:59:19.515Z,1008.6
2019-01-02T01:00:26.481Z,1008.6
2019-01-02T01:01:33.053Z,1008.7
2019-01-02T01:02:40.906Z,1008.7
2019-01-02T01:03:48.886Z,1008.7
2019-01-02T01:04:56.113Z,1008.8
2019-01-02T01:06:05.339Z,1008.8
2019-01-02T01:07:14.084Z,1008.8
2019-01-02T01:08:21.284Z,1008.8
2019-01-02T01:09:29.727Z,1008.9
2019-01-02T01:10:35.897Z,1008.8
2019-01-02T01:11:42.917Z,1008.9
2019-01-02T01:12:49.900Z,1009
2019-01-02T01:13:56.215Z,1008.9
2019-01-02T01:15:04.810Z,1009
2019-01-02T01:16:13.989Z,1008.9
2019-01-02T01:17:19.841Z,1008.9
2019-01-02T01:18:27.085Z,1009
2019-01-02T01:19:35.027Z,1008.9
2019-01-02T01:20:42.372Z,1009
2019-01-02T01:21:48.512Z,1009
2019-01-02T01:22:55.398Z,1009
2019-01-02T01:24:04.998Z,1008.9
2019-01-02T01:25:10.974Z,1009
2019-01-02T01:26:18.616Z,1009
2019-01-02T01:27:25.217Z,1009
2019-01-02T01:28:32.455Z,1009
2019-01-02T01:29:39.797Z,1009.1
2019-01-02T01:30:46.936Z,1009
2019-01-02T01:31:54.856Z,1009.1
2019-01-02T01:33:01.176Z,1009.1
2019-01-02T01:34:08.726Z,1009.2
2019-01-02T01:35:16.224Z,1009.2
2019-01-02T01:36:22.144Z,1009.2
2019-01-02T01:37:29.641Z,1009.2
2019-01-02T01:38:38.129Z,1009.3
2019-01-02T01:39:44.509Z,1009.3
2019-01-02T01:40:52.633Z,1009.3
2019-01-02T01:42:00.777Z,1009.3
2019-01-02T01:43:06.054Z,1009.3
2019-01-02T01:44:14.038Z,1009.4
2019-01-02T01:45:21.190Z,1009.3
2019-01-02T01:46:26.462Z,1009.4
2019-01-02T01:47:33.987Z,1009.5
2019-01-02T01:48:42.826Z,1009.5
2019-01-02T01:49:49.600Z,1009.3
2019-01-02T01:50:55.725Z,1009.3
2019-01-02T01:52:03.765Z,1009.5
2019-01-02T01:53:11.782Z,1009.4
2019-01-02T01:54:16.870Z,1009.4
2019-01-02T01:55:24.089Z,1009.6
2019-01-02T01:56:32.700Z,1009.5
2019-01-02T01:57:39.954Z,1009.6
2019-01-02T01:58:47.624Z,1009.5
2019-01-02T01:59:55.538Z,1009.6
2019-01-02T02:01:01.929Z,1009.6
2019-01-02T02:02:09.158Z,1009.6
2019-01-02T02:03:13.663Z,1009.6
2019-01-02T02:04:21.448Z,1009.6
2019-01-02T02:05:29.257Z,1009.6
2019-01-02T02:06:36.123Z,1009.6
2019-01-02T02:07:43.457Z,1009.6
2019-01-02T02:08:51.168Z,1009.5
2019-01-02T02:09:59.342Z,1009.6
2019-01-02T02:11:05.719Z,1009.6
2019-01-02T02:12:13.981Z,1009.6
2019-01-02T02:13:21.977Z,1009.7
2019-01-02T02:14:28.145Z,1009.5
2019-01-02T02:15:34.167Z,1009.6
2019-01-02T02:16:36.406Z,1009.6
2019-01-02T02:17:39.307Z,1009.6
2019-01-02T02:18:43.105Z,1009.6
2019-01-02T02:19:45.593Z,1009.6
2019-01-02T02:20:49.074Z,1009.6
2019-01-02T02:21:51.290Z,1009.7
2019-01-02T02:22:54.395Z,1009.8
2019-01-02T02:23:58.220Z,1009.7
2019-01-02T02:25:01.461Z,1009.7
2019-01-02T02:26:04.590Z,1009.7
2019-01-02T02:27:08.030Z,1009.7
2019-01-02T02:28:10.989Z,1009.7
2019-01-02T02:29:13.816Z,1009.7
2019-01-02T02:30:17.620Z,1009.7
2019-01-02T02:31:21.038Z,1009.7
2019-01-02T02:32:24.881Z,1010
2019-01-02T02:33:28.804Z,1009.7
2019-01-02T02:34:34.216Z,1009.8
2019-01-02T02:35:37.539Z,1009.7
2019-01-02T02:36:42.118Z,1009.8
2019-01-02T02:37:46.219Z,1009.8
2019-01-02T02:38:49.229Z,1009.8
2019-01-02T02:39:53.074Z,1009.8
2019-01-02T02:40:57.230Z,1009.8
2019-01-02T02:42:00.525Z,1009.8
2019-01-02T02:43:05.311Z,1009.8
2019-01-02T02:44:08.640Z,1009.7
2019-01-02T02:45:13.700Z,1009.7
2019-01-02T02:46:18.642Z,1009.8
2019-01-02T02:47:21.975Z,1009.8
2019-01-02T02:48:27.077Z,1010
2019-01-02T02:49:31.005Z,1010.1
2019-01-02T02:50:35.254Z,1010.2
2019-01-02T02:51:40.742Z,1010.2
2019-01-02T02:52:45.259Z,1010.2
2019-01-02T02:53:48.875Z,1010.2
2019-01-02T02:54:54.422Z,1010.1
2019-01-02T02:55:58.768Z,1010.2
2019-01-02T02:57:02.889Z,1010
2019-01-02T02:58:06.518Z,1010
2019-01-02T02:59:09.950Z,1010
2019-01-02T03:00:14.382Z,1009.9
2019-01-02T03:01:17.129Z,1010
2019-01-02T03:02:20.627Z,1009.9
2019-01-02T03:03:23.221Z,1010
2019-01-02T03:04:28.055Z,1010
2019-01-02T03:05:31.857Z,1009.9
2019-01-02T03:06:35.243Z,1010
2019-01-02T03:07:39.806Z,1010
2019-01-02T03:08:44.038Z,1010
2019-01-02T03:09:47.276Z,1010.1
2019-01-02T03:10:51.747Z,1010
2019-01-02T03:11:55.766Z,1010
2019-01-02T03:12:59.262Z,1010
2019-01-02T03:14:03.492Z,1010.1
2019-01-02T03:15:07.702Z,1010.1
2019-01-02T03:16:11.501Z,1010
2019-01-02T03:17:15.608Z,1010
2019-01-02T03:18:20.687Z,1010.2
2019-01-02T03:19:23.758Z,1010
2019-01-02T03:20:28.072Z,1010
2019-01-02T03:21:30.923Z,1010.2
2019-01-02T03:22:36.139Z,1010.1
2019-01-02T03:23:41.122Z,1010
2019-01-02T03:24:44.048Z,1010.1
2019-01-02T03:25:47.994Z,1010.1
2019-01-02T03:26:52.758Z,1010.3
2019-01-02T03:27:55.681Z,1010.3
2019-01-02T03:29:00.094Z,1010.3
2019-01-02T03:30:05.534Z,1010.3
2019-01-02T03:31:09.937Z,1010.3
2019-01-02T03:32:14.208Z,1010.4
2019-01-02T03:33:18.036Z,1010.3
2019-01-02T03:34:20.400Z,1010.3
2019-01-02T03:35:23.639Z,1010.3
2019-01-02T03:36:26.882Z,1010.4
2019-01-02T03:37:29.515Z,1010.3
2019-01-02T03:38:32.064Z,1010.5
2019-01-02T03:39:35.430Z,1010.4
2019-01-02T03:40:38.357Z,1010.4
2019-01-02T03:41:40.845Z,1010.5
2019-01-02T03:42:43.450Z,1010.4
2019-01-02T03:43:46.517Z,1010.6
2019-01-02T03:44:50.090Z,1010.6
2019-01-02T03:45:53.728Z,1010.6
2019-01-02T03:46:57.198Z,1010.6
2019-01-02T03:48:00.790Z,1010.6
2019-01-02T03:49:03.190Z,1010.7
2019-01-02T03:50:06.482Z,1010.6
2019-01-02T03:51:09.463Z,1010.6
2019-01-02T03:52:12.960Z,1010.6
2019-01-02T03:53:15.729Z,1010.5
2019-01-02T03:54:19.354Z,1010.6
2019-01-02T03:55:23.136Z,1010.6
2019-01-02T03:56:27.542Z,1010.6
2019-01-02T03:57:30.600Z,1010.8
2019-01-02T03:58:33.023Z,1010.7
2019-01-02T03:59:35.975Z,1010.7
2019-01-02T04:00:38.615Z,1010.8
2019-01-02T04:01:41.609Z,1010.9
2019-01-02T04:02:44.724Z,1011
2019-01-02T04:03:47.954Z,1011.1
2019-01-02T04:04:50.772Z,1011
2019-01-02T04:05:53.354Z,1011.1
2019-01-02T04:06:56.223Z,1011
2019-01-02T04:07:59.249Z,1011
2019-01-02T04:09:02.238Z,1011
2019-01-02T04:10:05.581Z,1011
2019-01-02T04:11:08.573Z,1011
2019-01-02T04:12:11.656Z,1011
2019-01-02T04:13:14.236Z,1011
2019-01-02T04:14:18.519Z,1011
2019-01-02T04:15:22.513Z,1011.1
2019-01-02T04:16:26.305Z,1011.1
2019-01-02T04:17:29.789Z,1011
2019-01-02T04:18:33.495Z,1011
2019-01-02T04:19:37.905Z,1011.1
2019-01-02T04:20:41.336Z,1011.1
2019-01-02T04:21:44.346Z,1011.1
2019-01-02T04:22:47.889Z,1011.2
2019-01-02T04:23:51.591Z,1011.1
2019-01-02T04:24:55.958Z,1011.1
2019-01-02T04:26:00.543Z,1011.2
2019-01-02T04:27:04.191Z,1011.2
2019-01-02T04:28:07.224Z,1011.2
2019-01-02T04:29:09.574Z,1011.4
2019-01-02T04:30:13.389Z,1011.4
2019-01-02T04:31:16.501Z,1011.5
2019-01-02T04:32:20.251Z,1011.7
2019-01-02T04:33:23.458Z,1011.5
2019-01-02T04:34:26.871Z,1011.6
2019-01-02T04:35:30.178Z,1011.5
2019-01-02T04:36:32.774Z,1011.5
2019-01-02T04:37:36.196Z,1011.5
2019-01-02T04:38:39.343Z,1011.5
2019-01-02T04:39:42.312Z,1011.5
2019-01-02T04:40:45.513Z,1011.4
2019-01-02T04:41:48.767Z,1011.5
2019-01-02T04:42:52.434Z,1011.5
2019-01-02T04:43:54.913Z,1011.4
2019-01-02T04:44:58.774Z,1011.4
2019-01-02T04:46:01.671Z,1011.5
2019-01-02T04:47:04.590Z,1011.4
2019-01-02T04:48:08.382Z,1011.5
2019-01-02T04:49:11.155Z,1011.4
2019-01-02T04:50:14.156Z,1011.3
2019-01-02T04:51:17.147Z,1011.3
2019-01-02T04:52:20.944Z,1011.6
2019-01-02T04:53:24.062Z,1011.5
2019-01-02T04:54:27.423Z,1011.6
2019-01-02T04:55:30.412Z,1011.5
2019-01-02T04:56:33.412Z,1011.5
2019-01-02T04:57:36.355Z,1011.6
2019-01-02T04:58:40.628Z,1011.6
2019-01-02T04:59:43.924Z,1011.6
2019-01-02T05:00:47.598Z,1011.6
2019-01-02T05:01:51.258Z,1011.6
2019-01-02T05:02:54.250Z,1011.6
2019-01-02T05:03:57.089Z,1011.6
2019-01-02T05:05:00.827Z,1011.7
2019-01-02T05:06:05.067Z,1011.7
2019-01-02T05:07:08.035Z,1011.8
2019-01-02T05:08:12.346Z,1011.7
2019-01-02T05:09:15.006Z,1011.8
2019-01-02T05:10:18.624Z,1011.8
2019-01-02T05:11:21.428Z,1011.8
2019-01-02T05:12:24.365Z,1011.8
2019-01-02T05:13:27.586Z,1011.8
2019-01-02T05:14:31.422Z,1011.8
2019-01-02T05:15:34.166Z,1012
2019-01-02T05:16:37.980Z,1011.8
2019-01-02T05:17:41.587Z,1011.8
2019-01-02T05:18:45.195Z,1011.9
2019-01-02T05:19:48.763Z,1011.9
2019-01-02T05:20:52.047Z,1011.9
2019-01-02T05:21:55.601Z,1011.9
2019-01-02T05:22:58.833Z,1012
2019-01-02T05:24:02.414Z,1012
2019-01-02T05:25:06.755Z,1012
2019-01-02T05:26:09.689Z,1012.1
2019-01-02T05:27:14.514Z,1012
2019-01-02T05:28:17.146Z,1012
2019-01-02T05:29:20.222Z,1011.9
2019-01-02T05:30:23.536Z,1012
2019-01-02T05:31:26.594Z,1012.1
2019-01-02T05:32:29.323Z,1012
2019-01-02T05:33:32.069Z,1012.1
2019-01-02T05:34:35.272Z,1012
2019-01-02T05:35:38.751Z,1012.1
2019-01-02T05:36:40.980Z,1012.1
2019-01-02T05:37:44.091Z,1012
2019-01-02T05:38:46.840Z,1012
2019-01-02T05:39:50.414Z,1012.1
2019-01-02T05:40:54.192Z,1012.1
2019-01-02T05:41:57.623Z,1012.1
2019-01-02T05:43:00.854Z,1012.2
2019-01-02T05:44:04.535Z,1012.2
2019-01-02T05:45:07.666Z,1012.3
2019-01-02T05:46:10.817Z,1012.5
2019-01-02T05:47:14.126Z,1012.3
2019-01-02T05:48:16.677Z,1012.4
2019-01-02T05:49:19.900Z,1012.4
2019-01-02T05:50:23.385Z,1012.4
2019-01-02T05:51:27.353Z,1012.5
2019-01-02T05:52:31.215Z,1012.6
2019-01-02T05:53:34.252Z,1012.5
2019-01-02T05:54:37.054Z,1012.6
2019-01-02T05:55:41.204Z,1012.6
2019-01-02T05:56:44.358Z,1012.7
2019-01-02T05:57:47.200Z,1012.8
2019-01-02T05:58:50.273Z,1012.9
2019-01-02T05:59:53.436Z,1012.8
2019-01-02T06:00:59.045Z,1012.8
2019-01-02T06:02:02.838Z,1012.9
2019-01-02T06:03:05.774Z,1012.9
2019-01-02T06:04:08.903Z,1013
2019-01-02T06:05:11.464Z,1012.9
2019-01-02T06:06:14.350Z,1012.9
2019-01-02T06:07:16.756Z,1012.9
2019-01-02T06:08:19.468Z,1012.9
2019-01-02T06:09:22.210Z,1013
2019-01-02T06:10:25.080Z,1012.8
2019-01-02T06:11:28.755Z,1013
2019-01-02T06:12:31.231Z,1013
2019-01-02T06:13:33.792Z,1012.9
2019-01-02T06:14:36.493Z,1013
2019-01-02T06:15:39.326Z,1013
2019-01-02T06:16:41.686Z,1013.1
2019-01-02T06:17:44.259Z,1013
2019-01-02T06:18:47.889Z,1013.2
2019-01-02T06:19:50.587Z,1013.2
2019-01-02T06:20:53.066Z,1013.2
2019-01-02T06:21:55.552Z,1013.4
2019-01-02T06:22:58.259Z,1013.3
2019-01-02T06:24:01.221Z,1013.4
2019-01-02T06:25:05.535Z,1013.4
2019-01-02T06:26:08.163Z,1013.5
2019-01-02T06:27:11.057Z,1013.5
2019-01-02T06:28:13.907Z,1013.4
2019-01-02T06:29:16.409Z,1013.4
2019-01-02T06:30:19.808Z,1013.5
2019-01-02T06:31:22.594Z,1013.5
2019-01-02T06:32:26.513Z,1013.4
2019-01-02T06:33:31.210Z,1013.4
2019-01-02T06:34:35.059Z,1013.5
2019-01-02T06:35:37.468Z,1013.5
2019-01-02T06:36:40.240Z,1013.5
2019-01-02T06:37:43.487Z,1013.5
2019-01-02T06:38:48.568Z,1013.5
2019-01-02T06:39:51.094Z,1013.4
2019-01-02T06:40:53.654Z,1013.7
2019-01-02T06:41:56.918Z,1013.5
2019-01-02T06:42:59.352Z,1013.7
2019-01-02T06:44:01.961Z,1013.7
2019-01-02T06:45:04.757Z,1013.7
2019-01-02T06:46:07.322Z,1013.7
2019-01-02T06:47:10.210Z,1013.7
2019-01-02T06:48:13.158Z,1013.7
2019-01-02T06:49:15.482Z,1013.7
2019-01-02T06:50:18.907Z,1013.9
2019-01-02T06:51:21.580Z,1013.8
2019-01-02T06:52:24.318Z,1013.9
2019-01-02T06:53:27.165Z,1013.9
2019-01-02T06:54:30.736Z,1013.9
2019-01-02T06:55:34.377Z,1013.9
2019-01-02T06:56:37.129Z,1014
2019-01-02T06:57:40.489Z,1014.1
2019-01-02T06:58:44.820Z,1014
2019-01-02T06:59:47.651Z,1014
2019-01-02T07:00:50.121Z,1013.9
2019-01-02T07:01:53.094Z,1014.1
2019-01-02T07:02:55.934Z,1014.1
2019-01-02T07:03:58.733Z,1014.1
2019-01-02T07:05:01.679Z,1014.1
2019-01-02T07:06:05.087Z,1014.4
2019-01-02T07:07:07.375Z,1014.1
2019-01-02T07:08:10.451Z,1014.1
2019-01-02T07:09:13.118Z,1014.2
2019-01-02T07:10:15.869Z,1014.1
2019-01-02T07:11:19.032Z,1014.2
2019-01-02T07:12:21.629Z,1014.2
2019-01-02T07:13:25.653Z,1014.3
2019-01-02T07:14:28.553Z,1014.2
2019-01-02T07:15:31.303Z,1014.3
2019-01-02T07:16:34.139Z,1014.3
2019-01-02T07:17:38.419Z,1014.5
2019-01-02T07:18:41.772Z,1014.5
2019-01-02T07:19:45.607Z,1014.5
2019-01-02T07:20:48.506Z,1014.5
2019-01-02T07:21:50.955Z,1014.4
2019-01-02T07:22:53.381Z,1014.5
2019-01-02T07:23:56.745Z,1014.5
2019-01-02T07:24:59.139Z,1014.6
2019-01-02T07:26:02.932Z,1014.6
2019-01-02T07:27:07.111Z,1014.6
2019-01-02T07:28:10.684Z,1014.7
2019-01-02T07:29:13.307Z,1014.7
2019-01-02T07:30:15.972Z,1014.8
2019-01-02T07:31:18.664Z,1014.8
2019-01-02T07:32:25.379Z,1014.8
2019-01-02T07:33:29.437Z,1014.9
2019-01-02T07:34:32.100Z,1014.9
2019-01-02T07:35:34.670Z,1014.9
2019-01-02T07:36:37.908Z,1014.9
2019-01-02T07:37:40.730Z,1014.9
2019-01-02T07:38:43.741Z,1015
2019-01-02T07:39:46.160Z,1015
2019-01-02T07:40:49.954Z,1015.1
2019-01-02T07:41:53.383Z,1015
2019-01-02T07:42:57.727Z,1015.1
2019-01-02T07:44:00.810Z,1015.1
2019-01-02T07:45:03.783Z,1015.1
2019-01-02T07:46:06.703Z,1015.2
2019-01-02T07:47:09.227Z,1015.2
2019-01-02T07:48:12.164Z,1015.2
2019-01-02T07:49:15.587Z,1015.2
2019-01-02T07:50:18.488Z,1015.2
2019-01-02T07:51:21.392Z,1015.3
2019-01-02T07:52:23.846Z,1015.4
2019-01-02T07:53:26.456Z,1015
2019-01-02T07:54:29.183Z,1015.3
2019-01-02T07:55:31.977Z,1015.4
2019-01-02T07:56:34.943Z,1015.3
2019-01-02T07:57:37.834Z,1015.5
2019-01-02T07:58:40.453Z,1015.6
2019-01-02T07:59:44.298Z,1015.6
2019-01-02T08:00:47.810Z,1015.5
2019-01-02T08:01:50.683Z,1015.4
2019-01-02T08:02:54.088Z,1015.4
2019-01-02T08:03:56.896Z,1015.5
2019-01-02T08:05:00.044Z,1015.6
2019-01-02T08:06:02.911Z,1015.6
2019-01-02T08:07:06.327Z,1015.6
2019-01-02T08:08:08.991Z,1015.7
2019-01-02T08:09:12.372Z,1015.7
2019-01-02T08:10:15.452Z,1015.6
2019-01-02T08:11:19.331Z,1015.8
2019-01-02T08:12:22.088Z,1015.5
2019-01-02T08:13:26.334Z,1015.8
2019-01-02T08:14:29.118Z,1015.7
2019-01-02T08:15:32.394Z,1015.8
2019-01-02T08:16:35.017Z,1015.8
2019-01-02T08:17:38.647Z,1015.8
2019-01-02T08:18:41.423Z,1015.9
2019-01-02T08:19:44.870Z,1015.9
2019-01-02T08:20:47.573Z,1015.9
2019-01-02T08:21:50.530Z,1015.8
2019-01-02T08:22:53.743Z,1015.9
2019-01-02T08:23:56.955Z,1015.9
2019-01-02T08:24:59.298Z,1015.8
2019-01-02T08:26:02.140Z,1016
2019-01-02T08:27:04.570Z,1015.9
2019-01-02T08:28:07.922Z,1016
2019-01-02T08:29:10.360Z,1015.9
2019-01-02T08:30:13.120Z,1015.9
2019-01-02T08:31:15.772Z,1016
2019-01-02T08:32:18.514Z,1016
2019-01-02T08:33:21.437Z,1016
2019-01-02T08:34:24.856Z,1016.1
2019-01-02T08:35:27.587Z,1016.3
2019-01-02T08:36:30.263Z,1016.2
2019-01-02T08:37:33.995Z,1016.2
2019-01-02T08:38:36.982Z,1016.2
2019-01-02T08:39:39.693Z,1016.3
2019-01-02T08:40:42.830Z,1016.3
2019-01-02T08:41:45.867Z,1016.3
2019-01-02T08:42:49.380Z,1016.3
2019-01-02T08:43:52.982Z,1016.3
2019-01-02T08:44:56.930Z,1016.4
2019-01-02T08:46:00.413Z,1016.5
2019-01-02T08:47:03.824Z,1016.5
2019-01-02T08:48:06.980Z,1016.5
2019-01-02T08:49:10.349Z,1016.5
2019-01-02T08:50:13.601Z,1016.6
2019-01-02T08:51:16.693Z,1016.6
2019-01-02T08:52:19.311Z,1016.6
2019-01-02T08:53:23.185Z,1016.7
2019-01-02T08:54:27.534Z,1016.7
2019-01-02T08:55:30.374Z,1016.7
2019-01-02T08:56:34.985Z,1016.8
2019-01-02T08:57:40.574Z,1016.8
2019-01-02T08:58:43.554Z,1016.8
2019-01-02T08:59:47.847Z,1016.8
2019-01-02T09:00:52.417Z,1016.9
2019-01-02T09:01:56.206Z,1016.8
2019-01-02T09:02:59.703Z,1016.8
2019-01-02T09:04:03.135Z,1016.9
2019-01-02T09:05:06.838Z,1016.9
2019-01-02T09:06:11.155Z,1016.9
2019-01-02T09:07:15.054Z,1016.9
2019-01-02T09:08:18.321Z,1017
2019-01-02T09:09:23.232Z,1017
2019-01-02T09:10:27.703Z,1017
2019-01-02T09:11:30.639Z,1016.9
2019-01-02T09:12:35.791Z,1017
2019-01-02T09:13:39.353Z,1017.1
2019-01-02T09:14:42.650Z,1017.1
2019-01-02T09:15:47.556Z,1017
2019-01-02T09:16:51.678Z,1017.1
2019-01-02T09:17:54.831Z,1017.2
2019-01-02T09:18:58.385Z,1017.2
2019-01-02T09:20:04.135Z,1017.2
2019-01-02T09:21:06.892Z,1017.2
2019-01-02T09:22:09.888Z,1017.2
2019-01-02T09:23:12.403Z,1017.2
2019-01-02T09:24:16.136Z,1017.4
2019-01-02T09:25:18.892Z,1017.3
2019-01-02T09:26:22.209Z,1017.3
2019-01-02T09:27:25.319Z,1017.3
2019-01-02T09:28:28.850Z,1017.4
2019-01-02T09:29:31.571Z,1017.3
2019-01-02T09:30:34.222Z,1017.5
2019-01-02T09:31:37.833Z,1017.4
2019-01-02T09:32:41.792Z,1017.4
2019-01-02T09:33:52.455Z,1017.5
2019-01-02T09:34:55.598Z,1017.5
2019-01-02T09:35:58.582Z,1017.5
2019-01-02T09:37:01.509Z,1017.5
2019-01-02T09:38:04.962Z,1017.6
2019-01-02T09:39:07.915Z,1017.5
2019-01-02T09:40:12.725Z,1017.5
2019-01-02T09:41:17.489Z,1017.5
2019-01-02T09:42:20.635Z,1017.5
2019-01-02T09:43:25.858Z,1017.6
2019-01-02T09:44:29.852Z,1017.6
2019-01-02T09:45:33.016Z,1017.6
2019-01-02T09:46:37.180Z,1017.7
2019-01-02T09:47:40.166Z,1017.6
2019-01-02T09:48:43.095Z,1017.6
2019-01-02T09:49:46.568Z,1017.7
2019-01-02T09:50:49.516Z,1017.7
2019-01-02T09:51:53.024Z,1017.8
2019-01-02T09:52:55.600Z,1017.7
2019-01-02T09:53:59.103Z,1017.7
2019-01-02T09:55:02.260Z,1017.8
2019-01-02T09:56:05.211Z,1017.7
2019-01-02T09:57:08.451Z,1017.8
2019-01-02T09:58:11.647Z,1017.8
2019-01-02T09:59:14.584Z,1017.8
2019-01-02T10:00:17.698Z,1017.8
2019-01-02T10:01:20.283Z,1017.8
2019-01-02T10:02:23.930Z,1017.8
2019-01-02T10:03:27.200Z,1017.9
2019-01-02T10:04:29.932Z,1017.9
2019-01-02T10:05:32.459Z,1017.9
2019-01-02T10:06:35.236Z,1017.9
2019-01-02T10:07:38.327Z,1017.9
2019-01-02T10:08:42.360Z,1017.9
2019-01-02T10:09:46.786Z,1017.8
2019-01-02T10:10:50.234Z,1017.8
2019-01-02T10:11:54.192Z,1017.9
2019-01-02T10:12:57.323Z,1017.9
2019-01-02T10:13:59.751Z,1018
2019-01-02T10:15:02.396Z,1017.8
2019-01-02T10:16:05.902Z,1018
2019-01-02T10:17:09.471Z,1018
2019-01-02T10:18:12.551Z,1018
2019-01-02T10:19:15.471Z,1018
2019-01-02T10:20:18.365Z,1018
2019-01-02T10:21:21.357Z,1018
2019-01-02T10:22:23.972Z,1017.9
2019-01-02T10:23:26.638Z,1018.1
2019-01-02T10:24:29.550Z,1018
2019-01-02T10:25:32.788Z,1018
2019-01-02T10:26:36.794Z,1018
2019-01-02T10:27:39.688Z,1018.1
2019-01-02T10:28:42.327Z,1017.9
2019-01-02T10:29:45.894Z,1018
2019-01-02T10:30:48.615Z,1018.1
2019-01-02T10:31:51.949Z,1018
2019-01-02T10:32:55.087Z,1018.1
2019-01-02T10:33:58.323Z,1018.1
2019-01-02T10:35:01.407Z,1018
2019-01-02T10:36:04.846Z,1018.1
2019-01-02T10:37:07.749Z,1018.2
2019-01-02T10:38:10.534Z,1018.1
2019-01-02T10:39:13.035Z,1018.2
2019-01-02T10:40:15.522Z,1018.2
2019-01-02T10:41:18.339Z,1018.2
2019-01-02T10:42:20.893Z,1018.1
2019-01-02T10:43:24.579Z,1018.1
2019-01-02T10:44:27.580Z,1018.2
2019-01-02T10:45:30.452Z,1018.2
2019-01-02T10:46:34.606Z,1018
2019-01-02T10:47:38.497Z,1018.1
2019-01-02T10:48:42.011Z,1018.2
2019-01-02T10:49:46.200Z,1018.2
2019-01-02T10:50:50.336Z,1018.2
2019-01-02T10:51:53.825Z,1018.2
2019-01-02T10:52:57.512Z,1018.2
2019-01-02T10:54:01.746Z,1018.2
2019-01-02T10:55:05.410Z,1018.2
2019-01-02T10:56:10.777Z,1018.3
2019-01-02T10:57:14.130Z,1018.1
2019-01-02T10:58:17.517Z,1018.3
2019-01-02T10:59:21.161Z,1018.3
2019-01-02T11:00:23.819Z,1018.3
2019-01-02T11:01:27.053Z,1018.2
2019-01-02T11:02:30.659Z,1018.2
2019-01-02T11:03:33.470Z,1018.2
2019-01-02T11:04:37.682Z,1018.1
2019-01-02T11:05:41.476Z,1018.3
2019-01-02T11:06:43.693Z,1018.3
2019-01-02T11:07:46.731Z,1018.3
2019-01-02T11:08:49.824Z,1018.3
2019-01-02T11:09:52.588Z,1018.2
2019-01-02T11:10:55.072Z,1018.3
2019-01-02T11:11:58.703Z,1018.3
2019-01-02T11:13:00.967Z,1018.3
2019-01-02T11:14:03.926Z,1018.4
2019-01-02T11:15:06.435Z,1018.3
2019-01-02T11:16:08.894Z,1018.3
2019-01-02T11:17:11.410Z,1018.3
2019-01-02T11:18:14.439Z,1018.4
2019-01-02T11:19:17.476Z,1018.3
2019-01-02T11:20:21.227Z,1018.4
2019-01-02T11:21:26.313Z,1018.3
2019-01-02T11:22:30.605Z,1018.5
2019-01-02T11:23:35.212Z,1018.5
2019-01-02T11:24:37.958Z,1018.4
2019-01-02T11:25:40.513Z,1018.5
2019-01-02T11:26:43.032Z,1018.5
2019-01-02T11:27:45.560Z,1018.4
2019-01-02T11:28:48.347Z,1018.5
2019-01-02T11:29:51.371Z,1018.5
2019-01-02T11:30:55.638Z,1018.5
2019-01-02T11:31:59.528Z,1018.5
2019-01-02T11:33:03.881Z,1018.5
2019-01-02T11:34:06.887Z,1018.5
2019-01-02T11:35:09.886Z,1018.4
2019-01-02T11:36:12.745Z,1018.5
2019-01-02T11:37:16.123Z,1018.5
2019-01-02T11:38:19.802Z,1018.5
2019-01-02T11:39:23.513Z,1018.5
2019-01-02T11:40:27.045Z,1018.5
2019-01-02T11:41:31.448Z,1018.6
2019-01-02T11:42:34.420Z,1018.5
2019-01-02T11:43:37.716Z,1018.5
2019-01-02T11:44:40.754Z,1018.5
2019-01-02T11:45:44.589Z,1018.5
2019-01-02T11:46:47.347Z,1018.5
2019-01-02T11:47:50.448Z,1018.6
2019-01-02T11:48:53.504Z,1018.5
2019-01-02T11:49:56.771Z,1018.6
2019-01-02T11:50:59.597Z,1018.6
2019-01-02T11:52:02.463Z,1018.5
2019-01-02T11:53:05.282Z,1018.6
2019-01-02T11:54:08.946Z,1018.5
2019-01-02T11:55:11.500Z,1018.6
2019-01-02T11:56:14.136Z,1018.6
2019-01-02T11:57:16.543Z,1018.6
2019-01-02T11:58:19.321Z,1018.6
2019-01-02T11:59:21.876Z,1018.6
2019-01-02T12:00:24.627Z,1018.7
2019-01-02T12:01:27.101Z,1018.5
2019-01-02T12:02:34.507Z,1018.6
2019-01-02T12:03:37.245Z,1018.6
2019-01-02T12:04:39.873Z,1018.5
2019-01-02T12:05:42.372Z,1018.5
2019-01-02T12:06:44.983Z,1018.7
2019-01-02T12:07:47.403Z,1018.6
2019-01-02T12:08:50.731Z,1018.7
2019-01-02T12:09:53.166Z,1018.5
2019-01-02T12:10:56.117Z,1018.7
2019-01-02T12:11:58.537Z,1018.6
2019-01-02T12:13:00.865Z,1018.8
2019-01-02T12:14:03.577Z,1018.6
2019-01-02T12:15:06.489Z,1018.7
2019-01-02T12:16:09.314Z,1018.7
2019-01-02T12:17:12.113Z,1018.7
2019-01-02T12:18:16.195Z,1018.6
2019-01-02T12:19:19.849Z,1018.7
2019-01-02T12:20:23.731Z,1018.6
2019-01-02T12:21:28.130Z,1018.8
2019-01-02T12:22:31.950Z,1018.7
2019-01-02T12:23:36.212Z,1018.7
2019-01-02T12:24:40.196Z,1018.7
2019-01-02T12:25:43.428Z,1018.7
2019-01-02T12:26:47.281Z,1018.8
2019-01-02T12:27:51.022Z,1018.8
2019-01-02T12:28:54.621Z,1018.8
2019-01-02T12:29:57.714Z,1018.8
2019-01-02T12:31:00.213Z,1018.9
2019-01-02T12:32:03.827Z,1018.9
2019-01-02T12:33:07.153Z,1019
2019-01-02T12:34:10.033Z,1019
2019-01-02T12:35:12.342Z,1019
2019-01-02T12:36:14.910Z,1019
2019-01-02T12:37:17.399Z,1018.9
2019-01-02T12:38:20.208Z,1019
2019-01-02T12:39:23.065Z,1019.1
2019-01-02T12:40:25.901Z,1019
2019-01-02T12:41:28.706Z,1018.9
2019-01-02T12:42:31.308Z,1019.1
2019-01-02T12:43:34.248Z,1019.1
2019-01-02T12:44:37.817Z,1019
2019-01-02T12:45:40.449Z,1019
2019-01-02T12:46:44.660Z,1019
2019-01-02T12:47:48.605Z,1019.1
2019-01-02T12:48:51.628Z,1019.1
2019-01-02T12:49:55.249Z,1019.2
2019-01-02T12:50:57.719Z,1019.1
2019-01-02T12:52:00.066Z,1019.2
2019-01-02T12:53:03.158Z,1019.2
2019-01-02T12:54:05.983Z,1019.1
2019-01-02T12:55:08.810Z,1019.3
2019-01-02T12:56:11.619Z,1019.3
2019-01-02T12:57:14.561Z,1019.3
2019-01-02T12:58:16.863Z,1019.3
2019-01-02T12:59:19.157Z,1019.3
2019-01-02T13:00:22.050Z,1019.3
2019-01-02T13:01:24.815Z,1019.4
2019-01-02T13:02:27.778Z,1019.3
2019-01-02T13:03:31.399Z,1019.3
2019-01-02T13:04:34.288Z,1019.4
2019-01-02T13:05:37.910Z,1019.3
2019-01-02T13:06:41.153Z,1019.3
2019-01-02T13:07:45.060Z,1019.4
2019-01-02T13:08:49.680Z,1019.5
2019-01-02T13:09:52.701Z,1019.5
2019-01-02T13:10:55.079Z,1019.4
2019-01-02T13:11:57.591Z,1019.5
2019-01-02T13:13:01.469Z,1019.5
2019-01-02T13:14:03.874Z,1019.5
2019-01-02T13:15:06.503Z,1019.6
2019-01-02T13:16:09.205Z,1019.6
2019-01-02T13:17:12.403Z,1019.6
2019-01-02T13:18:15.278Z,1019.6
2019-01-02T13:19:18.109Z,1019.8
2019-01-02T13:20:21.338Z,1019.7
2019-01-02T13:21:23.891Z,1019.7
2019-01-02T13:22:26.512Z,1019.7
2019-01-02T13:23:29.773Z,1019.7
2019-01-02T13:24:33.100Z,1019.8
2019-01-02T13:25:35.779Z,1019.7